Aviation weather information 2021-07-27 19:34 UTC

TAF(FCEO32)
FCEO32 EETN 271400 AAA
TAF AMD EEKE 271800Z 2715/2721 CNL=

TAF(FTEO31)
FTEO31 EETN 271700
TAF EETN 271700Z 2718/2818 11012KT CAVOK PROB40 TEMPO 2722/2801
     SCT025CB BECMG 2801/2802 SCT015 BKN025CB TEMPO 2802/2807 3000
     TSRA BKN007 BKN020CB TEMPO 2807/2815 4000 SHRA PROB40 TEMPO
     2808/2815 VRB22KT TSRA=

TAF(FTEO33)
FTEO33 EEEI 271700
TAF EEEI 271700Z 2718/2818 16010KT 9999 SCT035 TEMPO 2722/2806
     5000 SHRA BKN015 SCT025CB TEMPO 2801/2805 VRB20KT TSRA TEMPO
     2806/2813 7000 SHRA BKN018 SCT30CB BECMG 2809/2811 24012KT= 

Weather observation (METAR/SPECI)
METAR EETN 271920Z 07003KT CAVOK 23/15 Q1011 NOSIG=
METAR EEEI 271850Z AUTO 07004KT 9999 FEW100/// OVC150/// 23/16
Q1011=
METAR EETU 271920Z AUTO 11006KT 070V240 9999 FEW029/// SCT061///
OVC096/// 21/18 Q1012=
METAR EEPU 271920Z NIL=
SPECI EEKE 271929Z AUTO 04008KT 6000NDV RA OVC011 19/19 Q1009=
METAR EEKA 271920Z NIL=